createdAt,value
2022-09-01T00:00:30.890Z,100.00
2022-09-01T00:02:39.066Z,100.00
2022-09-01T00:04:48.362Z,100.00
2022-09-01T00:06:59.991Z,100.00
2022-09-01T00:09:10.525Z,100.00
2022-09-01T00:11:21.836Z,100.00
2022-09-01T00:13:33.205Z,100.00
2022-09-01T00:15:48.830Z,100.00
2022-09-01T00:17:57.607Z,100.00
2022-09-01T00:20:07.657Z,100.00
2022-09-01T00:22:15.888Z,100.00
2022-09-01T00:24:26.338Z,100.00
2022-09-01T00:26:37.612Z,100.00
2022-09-01T00:28:45.799Z,100.00
2022-09-01T00:30:53.903Z,100.00
2022-09-01T00:33:03.221Z,100.00
2022-09-01T00:35:12.805Z,100.00
2022-09-01T00:37:20.696Z,100.00
2022-09-01T00:39:28.756Z,100.00
2022-09-01T00:41:41.901Z,100.00
2022-09-01T00:43:52.972Z,100.00
2022-09-01T00:46:01.105Z,100.00
2022-09-01T00:48:09.413Z,100.00
2022-09-01T00:50:21.157Z,100.00
2022-09-01T00:52:35.465Z,100.00
2022-09-01T00:54:47.708Z,100.00
2022-09-01T00:56:59.320Z,100.00
2022-09-01T00:59:09.750Z,100.00
2022-09-01T01:01:17.919Z,100.00
2022-09-01T01:03:26.802Z,100.00
2022-09-01T01:05:41.874Z,100.00
2022-09-01T01:07:50.274Z,100.00
2022-09-01T01:09:58.995Z,100.00
2022-09-01T01:12:17.572Z,100.00
2022-09-01T01:14:28.825Z,100.00
2022-09-01T01:16:36.861Z,100.00
2022-09-01T01:18:45.317Z,100.00
2022-09-01T01:21:16.552Z,100.00
2022-09-01T01:23:31.108Z,100.00
2022-09-01T01:25:45.705Z,100.00
2022-09-01T01:27:55.603Z,100.00
2022-09-01T01:30:04.019Z,100.00
2022-09-01T01:32:18.339Z,100.00
2022-09-01T01:34:26.775Z,100.00
2022-09-01T01:36:38.096Z,100.00
2022-09-01T01:38:52.585Z,100.00
2022-09-01T01:41:03.528Z,100.00
2022-09-01T01:43:12.294Z,100.00
2022-09-01T01:45:22.550Z,100.00
2022-09-01T01:47:30.475Z,100.00
2022-09-01T01:49:41.870Z,100.00
2022-09-01T01:51:56.280Z,100.00
2022-09-01T01:54:08.531Z,100.00
2022-09-01T01:56:19.551Z,100.00
2022-09-01T01:58:30.483Z,100.00
2022-09-01T02:00:40.342Z,100.00
2022-09-01T02:02:52.434Z,100.00
2022-09-01T02:05:00.625Z,100.00
2022-09-01T02:07:10.795Z,100.00
2022-09-01T02:09:21.393Z,100.00
2022-09-01T02:11:37.969Z,100.00
2022-09-01T02:13:47.977Z,100.00
2022-09-01T02:15:57.874Z,100.00
2022-09-01T02:18:05.804Z,100.00
2022-09-01T02:20:16.134Z,100.00
2022-09-01T02:22:24.047Z,100.00
2022-09-01T02:24:32.994Z,100.00
2022-09-01T02:26:46.012Z,100.00
2022-09-01T02:28:55.994Z,100.00
2022-09-01T02:31:11.504Z,100.00
2022-09-01T02:33:23.854Z,100.00
2022-09-01T02:35:38.040Z,100.00
2022-09-01T02:37:49.517Z,100.00
2022-09-01T02:39:59.624Z,100.00
2022-09-01T02:42:11.864Z,100.00
2022-09-01T02:44:22.187Z,100.00
2022-09-01T02:46:31.278Z,100.00
2022-09-01T02:48:46.284Z,100.00
2022-09-01T02:50:59.514Z,100.00
2022-09-01T02:53:10.179Z,100.00
2022-09-01T02:55:23.078Z,100.00
2022-09-01T02:57:34.699Z,100.00
2022-09-01T02:59:45.655Z,100.00
2022-09-01T03:01:56.480Z,100.00
2022-09-01T03:04:08.272Z,100.00
2022-09-01T03:06:19.448Z,100.00
2022-09-01T03:08:28.025Z,100.00
2022-09-01T03:10:41.840Z,100.00
2022-09-01T03:12:52.685Z,100.00
2022-09-01T03:15:01.067Z,100.00
2022-09-01T03:17:09.340Z,100.00
2022-09-01T03:19:19.255Z,100.00
2022-09-01T03:21:27.924Z,100.00
2022-09-01T03:23:37.022Z,100.00
2022-09-01T03:25:46.390Z,100.00
2022-09-01T03:28:03.113Z,100.00
2022-09-01T03:30:12.823Z,100.00
2022-09-01T03:32:20.931Z,100.00
2022-09-01T03:34:28.845Z,100.00
2022-09-01T03:36:39.869Z,100.00
2022-09-01T03:38:48.828Z,100.00
2022-09-01T03:41:02.409Z,100.00
2022-09-01T03:43:14.237Z,100.00
2022-09-01T03:45:25.938Z,100.00
2022-09-01T03:47:33.823Z,100.00
2022-09-01T03:49:43.765Z,100.00
2022-09-01T03:51:53.059Z,100.00
2022-09-01T03:54:02.015Z,100.00
2022-09-01T03:56:11.728Z,100.00
2022-09-01T03:58:23.623Z,100.00
2022-09-01T04:00:38.855Z,100.00
2022-09-01T04:02:48.410Z,100.00
2022-09-01T04:05:08.579Z,100.00
2022-09-01T04:07:19.178Z,100.00
2022-09-01T04:09:27.636Z,100.00
2022-09-01T04:11:36.374Z,100.00
2022-09-01T04:13:48.352Z,100.00
2022-09-01T04:15:56.978Z,100.00
2022-09-01T04:18:09.934Z,100.00
2022-09-01T04:20:20.973Z,100.00
2022-09-01T04:22:32.142Z,100.00
2022-09-01T04:24:46.302Z,100.00
2022-09-01T04:26:56.480Z,100.00
2022-09-01T04:29:09.309Z,100.00
2022-09-01T04:31:20.606Z,100.00
2022-09-01T04:33:37.095Z,100.00
2022-09-01T04:35:45.810Z,100.00
2022-09-01T04:37:54.264Z,100.00
2022-09-01T04:40:02.788Z,100.00
2022-09-01T04:42:12.173Z,100.00
2022-09-01T04:44:25.544Z,100.00
2022-09-01T04:46:36.021Z,100.00
2022-09-01T04:48:47.852Z,100.00
2022-09-01T04:50:58.687Z,100.00
2022-09-01T04:53:12.128Z,100.00
2022-09-01T04:55:24.838Z,100.00
2022-09-01T04:57:32.844Z,100.00
2022-09-01T04:59:44.001Z,100.00
2022-09-01T05:01:55.854Z,100.00
2022-09-01T05:04:05.390Z,100.00
2022-09-01T05:06:18.523Z,100.00
2022-09-01T05:08:36.249Z,100.00
2022-09-01T05:10:52.487Z,100.00
2022-09-01T05:13:10.223Z,100.00
2022-09-01T05:15:21.338Z,100.00
2022-09-01T05:17:29.881Z,100.00
2022-09-01T05:19:38.549Z,100.00
2022-09-01T05:21:50.705Z,100.00
2022-09-01T05:24:00.876Z,100.00
2022-09-01T05:26:17.093Z,100.00
2022-09-01T05:28:27.422Z,100.00
2022-09-01T05:30:39.895Z,100.00
2022-09-01T05:32:50.933Z,100.00
2022-09-01T05:34:59.715Z,100.00
2022-09-01T05:37:08.922Z,100.00
2022-09-01T05:39:19.688Z,100.00
2022-09-01T05:41:28.670Z,100.00
2022-09-01T05:43:39.336Z,100.00
2022-09-01T05:46:06.246Z,100.00
2022-09-01T05:48:21.823Z,100.00
2022-09-01T05:50:31.542Z,100.00
2022-09-01T05:52:44.598Z,100.00
2022-09-01T05:54:52.944Z,100.00
2022-09-01T05:57:23.457Z,100.00
2022-09-01T05:59:33.502Z,100.00
2022-09-01T06:02:01.591Z,100.00
2022-09-01T06:04:11.557Z,100.00
2022-09-01T06:06:22.344Z,100.00
2022-09-01T06:08:30.286Z,100.00
2022-09-01T06:10:42.014Z,100.00
2022-09-01T06:12:54.015Z,100.00
2022-09-01T06:15:03.824Z,100.00
2022-09-01T06:17:16.766Z,100.00
2022-09-01T06:19:27.368Z,100.00
2022-09-01T06:21:36.107Z,100.00
2022-09-01T06:23:45.638Z,100.00
2022-09-01T06:25:53.926Z,100.00
2022-09-01T06:28:04.656Z,100.00
2022-09-01T06:30:23.695Z,100.00
2022-09-01T06:32:52.264Z,100.00
2022-09-01T06:35:00.601Z,100.00
2022-09-01T06:37:08.649Z,99.86
2022-09-01T06:39:20.195Z,98.94
2022-09-01T06:41:32.413Z,97.52
2022-09-01T06:43:41.916Z,96.24
2022-09-01T06:45:54.959Z,96.81
2022-09-01T06:48:07.648Z,96.60
2022-09-01T06:55:34.125Z,85.84
2022-09-01T06:58:06.564Z,67.67
2022-09-01T07:00:19.137Z,57.09
2022-09-01T07:02:30.373Z,54.46
2022-09-01T07:05:02.882Z,47.85
2022-09-01T07:10:17.723Z,41.17
2022-09-01T07:12:32.213Z,39.50
2022-09-01T07:17:27.132Z,38.10
2022-09-01T07:19:51.050Z,36.56
2022-09-01T07:22:35.259Z,33.61
2022-09-01T07:24:32.158Z,33.38
2022-09-01T07:27:09.477Z,36.52
2022-09-01T07:29:21.930Z,40.33
2022-09-01T07:31:50.590Z,45.44
2022-09-01T07:37:16.152Z,54.77
2022-09-01T07:45:26.677Z,65.17
2022-09-01T07:47:54.962Z,67.49
2022-09-01T07:50:37.373Z,67.92
2022-09-01T07:52:36.752Z,69.18
2022-09-01T07:54:47.693Z,73.52
2022-09-01T07:56:57.183Z,74.75
2022-09-01T07:59:06.346Z,74.84
2022-09-01T08:01:18.997Z,76.92
2022-09-01T08:03:29.158Z,80.08
2022-09-01T08:05:37.109Z,80.57
2022-09-01T08:07:54.597Z,80.83
2022-09-01T08:10:12.581Z,80.92
2022-09-01T08:12:28.915Z,80.83
2022-09-01T08:14:37.258Z,82.12
2022-09-01T08:16:53.404Z,79.49
2022-09-01T08:19:02.587Z,81.16
2022-09-01T08:21:37.616Z,83.55
2022-09-01T08:24:08.734Z,86.29
2022-09-01T08:26:24.088Z,85.45
2022-09-01T08:28:33.617Z,84.37
2022-09-01T08:30:51.253Z,81.38
2022-09-01T08:33:10.210Z,81.58
2022-09-01T08:35:23.253Z,80.93
2022-09-01T08:37:31.300Z,78.17
2022-09-01T08:39:39.983Z,75.01
2022-09-01T08:42:02.098Z,76.80
2022-09-01T08:44:19.651Z,78.52
2022-09-01T08:46:31.124Z,78.38
2022-09-01T08:51:30.507Z,70.97
2022-09-01T08:53:45.973Z,73.85
2022-09-01T08:55:59.223Z,76.30
2022-09-01T08:58:12.275Z,76.34
2022-09-01T09:01:00.032Z,76.92
2022-09-01T09:03:17.060Z,76.17
2022-09-01T09:05:46.249Z,75.10
2022-09-01T09:08:11.665Z,73.50
2022-09-01T09:10:24.634Z,72.96
2022-09-01T09:12:51.623Z,72.25
2022-09-01T09:15:11.926Z,73.03
2022-09-01T09:17:26.273Z,72.19
2022-09-01T09:19:36.804Z,72.08
2022-09-01T09:21:47.517Z,72.39
2022-09-01T09:24:02.098Z,69.47
2022-09-01T09:26:09.965Z,71.92
2022-09-01T09:28:17.859Z,70.96
2022-09-01T09:30:32.657Z,68.60
2022-09-01T09:33:30.529Z,69.88
2022-09-01T09:35:36.624Z,65.91
2022-09-01T09:37:44.477Z,67.25
2022-09-01T09:40:10.581Z,67.82
2022-09-01T09:42:19.618Z,65.78
2022-09-01T09:44:30.033Z,64.50
2022-09-01T09:46:43.630Z,65.01
2022-09-01T09:49:16.147Z,63.13
2022-09-01T09:51:28.840Z,64.36
2022-09-01T09:53:38.133Z,63.85
2022-09-01T09:55:58.141Z,65.33
2022-09-01T09:58:14.874Z,63.09
2022-09-01T10:00:25.584Z,63.54
2022-09-01T10:02:39.745Z,65.41
2022-09-01T10:04:48.614Z,66.56
2022-09-01T10:07:02.068Z,66.34
2022-09-01T10:09:12.153Z,66.65
2022-09-01T10:11:41.614Z,66.83
2022-09-01T10:13:49.919Z,63.10
2022-09-01T10:16:01.139Z,61.84
2022-09-01T10:18:20.839Z,59.68
2022-09-01T10:20:30.874Z,58.57
2022-09-01T10:22:40.635Z,58.19
2022-09-01T10:24:50.571Z,60.10
2022-09-01T10:27:01.956Z,60.25
2022-09-01T10:29:16.287Z,59.39
2022-09-01T10:31:32.076Z,58.86
2022-09-01T10:33:43.729Z,60.13
2022-09-01T10:35:56.838Z,58.86
2022-09-01T10:38:11.970Z,60.13
2022-09-01T10:40:41.374Z,56.99
2022-09-01T10:42:55.383Z,57.36
2022-09-01T10:45:04.003Z,58.78
2022-09-01T10:47:16.484Z,59.15
2022-09-01T10:50:07.709Z,59.21
2022-09-01T10:52:51.188Z,60.06
2022-09-01T10:55:03.661Z,60.37
2022-09-01T10:57:15.417Z,60.05
2022-09-01T10:59:31.627Z,59.58
2022-09-01T11:02:24.841Z,62.06
2022-09-01T11:05:04.869Z,60.82
2022-09-01T11:07:57.941Z,61.99
2022-09-01T11:10:33.288Z,62.82
2022-09-01T11:12:52.705Z,62.93
2022-09-01T11:15:02.760Z,61.63
2022-09-01T11:17:17.526Z,62.18
2022-09-01T11:19:44.520Z,62.18
2022-09-01T11:22:08.439Z,61.56
2022-09-01T11:24:50.822Z,61.73
2022-09-01T11:27:07.347Z,60.31
2022-09-01T11:29:46.198Z,61.10
2022-09-01T11:31:55.051Z,61.95
2022-09-01T11:34:07.397Z,60.55
2022-09-01T11:36:32.356Z,60.17
2022-09-01T11:38:49.220Z,59.49
2022-09-01T11:40:59.769Z,60.34
2022-09-01T11:43:16.532Z,61.58
2022-09-01T11:45:28.563Z,60.56
2022-09-01T11:47:41.471Z,62.81
2022-09-01T11:49:57.945Z,57.94
2022-09-01T11:52:07.848Z,57.15
2022-09-01T11:54:17.554Z,59.42
2022-09-01T11:56:29.356Z,56.57
2022-09-01T11:58:41.951Z,57.48
2022-09-01T12:00:49.945Z,57.32
2022-09-01T12:02:58.205Z,55.58
2022-09-01T12:05:26.563Z,56.43
2022-09-01T12:07:45.588Z,55.89
2022-09-01T12:09:54.418Z,54.67
2022-09-01T12:12:02.441Z,54.89
2022-09-01T12:14:15.563Z,55.90
2022-09-01T12:16:24.980Z,58.50
2022-09-01T12:18:35.693Z,60.75
2022-09-01T12:20:44.025Z,60.75
2022-09-01T12:22:52.113Z,63.19
2022-09-01T12:25:00.931Z,62.83
2022-09-01T12:27:08.919Z,62.75
2022-09-01T12:29:20.481Z,62.28
2022-09-01T12:31:29.844Z,60.70
2022-09-01T12:33:38.633Z,61.33
2022-09-01T12:35:46.709Z,60.07
2022-09-01T12:37:55.420Z,59.90
2022-09-01T12:40:03.485Z,60.31
2022-09-01T12:42:27.356Z,59.63
2022-09-01T12:44:47.790Z,59.41
2022-09-01T12:46:55.996Z,57.28
2022-09-01T12:49:19.981Z,57.13
2022-09-01T12:51:31.557Z,57.54
2022-09-01T12:53:42.432Z,56.98
2022-09-01T12:56:07.661Z,55.72
2022-09-01T12:58:15.642Z,55.73
2022-09-01T13:00:30.008Z,57.07
2022-09-01T13:02:41.416Z,56.04
2022-09-01T13:04:49.800Z,55.86
2022-09-01T13:07:00.236Z,55.71
2022-09-01T13:09:08.654Z,54.69
2022-09-01T13:11:21.480Z,54.54
2022-09-01T13:13:30.272Z,55.37
2022-09-01T13:15:42.913Z,55.23
2022-09-01T13:17:51.482Z,55.56
2022-09-01T13:19:59.407Z,55.31
2022-09-01T13:22:08.077Z,54.44
2022-09-01T13:24:18.010Z,55.66
2022-09-01T13:26:26.446Z,56.27
2022-09-01T13:28:36.436Z,56.12
2022-09-01T13:33:24.364Z,57.30
2022-09-01T13:35:32.765Z,58.03
2022-09-01T13:37:41.665Z,57.13
2022-09-01T13:39:49.999Z,57.23
2022-09-01T13:41:57.895Z,56.38
2022-09-01T13:44:06.194Z,57.38
2022-09-01T13:46:17.751Z,57.99
2022-09-01T13:49:02.124Z,57.92
2022-09-01T13:53:24.050Z,57.33
2022-09-01T13:55:33.721Z,58.00
2022-09-01T13:57:41.834Z,59.04
2022-09-01T13:59:49.689Z,57.86
2022-09-01T14:02:01.886Z,56.64
2022-09-01T14:04:10.462Z,58.16
2022-09-01T14:06:19.762Z,57.63
2022-09-01T14:08:27.836Z,55.91
2022-09-01T14:10:37.105Z,57.16
2022-09-01T14:12:46.113Z,56.95
2022-09-01T14:17:24.855Z,56.57
2022-09-01T14:19:32.684Z,56.98
2022-09-01T14:21:40.649Z,55.91
2022-09-01T14:23:48.759Z,55.52
2022-09-01T14:25:58.936Z,54.44
2022-09-01T14:28:08.068Z,54.16
2022-09-01T14:30:20.135Z,54.04
2022-09-01T14:32:31.497Z,54.23
2022-09-01T14:34:39.533Z,53.81
2022-09-01T14:36:49.940Z,52.59
2022-09-01T14:38:58.691Z,53.43
2022-09-01T14:41:06.863Z,52.27
2022-09-01T14:43:15.539Z,52.33
2022-09-01T14:45:25.949Z,52.73
2022-09-01T14:47:39.316Z,52.27
2022-09-01T14:49:48.239Z,52.14
2022-09-01T14:52:12.031Z,51.73
2022-09-01T14:54:20.199Z,51.41
2022-09-01T14:56:29.657Z,52.35
2022-09-01T14:58:37.533Z,52.65
2022-09-01T15:00:46.028Z,53.30
2022-09-01T15:02:57.811Z,53.25
2022-09-01T15:05:06.000Z,52.50
2022-09-01T15:07:15.066Z,53.28
2022-09-01T15:09:23.016Z,52.94
2022-09-01T15:11:31.242Z,52.67
2022-09-01T15:13:42.362Z,52.70
2022-09-01T15:15:52.850Z,53.45
2022-09-01T15:18:04.260Z,53.27
2022-09-01T15:20:24.752Z,52.28
2022-09-01T15:22:32.898Z,53.32
2022-09-01T15:24:40.726Z,53.09
2022-09-01T15:26:48.728Z,52.24
2022-09-01T15:28:57.035Z,52.31
2022-09-01T15:31:04.947Z,52.19
2022-09-01T15:33:16.890Z,52.29
2022-09-01T15:35:25.315Z,53.03
2022-09-01T15:37:33.185Z,54.04
2022-09-01T15:39:41.067Z,53.19
2022-09-01T15:41:48.935Z,53.52
2022-09-01T15:43:58.056Z,52.41
2022-09-01T15:46:07.988Z,52.40
2022-09-01T15:48:18.536Z,51.83
2022-09-01T15:50:29.108Z,51.95
2022-09-01T15:52:37.121Z,52.71
2022-09-01T15:54:45.010Z,52.16
2022-09-01T15:56:52.853Z,52.15
2022-09-01T15:59:02.542Z,53.12
2022-09-01T16:01:10.442Z,52.30
2022-09-01T16:03:21.260Z,52.17
2022-09-01T16:05:29.277Z,52.25
2022-09-01T16:07:37.895Z,51.84
2022-09-01T16:09:45.684Z,52.83
2022-09-01T16:11:53.902Z,52.80
2022-09-01T16:14:02.483Z,53.26
2022-09-01T16:16:22.532Z,53.25
2022-09-01T16:18:41.516Z,53.89
2022-09-01T16:20:58.222Z,54.42
2022-09-01T16:23:17.236Z,55.28
2022-09-01T16:25:31.604Z,55.95
2022-09-01T16:27:43.916Z,55.43
2022-09-01T16:29:53.915Z,55.81
2022-09-01T16:32:01.980Z,56.33
2022-09-01T16:34:18.372Z,55.91
2022-09-01T16:36:38.103Z,54.93
2022-09-01T16:38:51.379Z,54.56
2022-09-01T16:41:07.958Z,55.35
2022-09-01T16:43:26.899Z,55.21
2022-09-01T16:45:45.429Z,55.07
2022-09-01T16:48:06.505Z,55.02
2022-09-01T16:50:26.125Z,55.23
2022-09-01T16:52:46.620Z,55.78
2022-09-01T16:55:18.620Z,56.13
2022-09-01T16:57:35.013Z,56.79
2022-09-01T16:59:55.690Z,56.74
2022-09-01T17:02:15.922Z,56.38
2022-09-01T17:04:35.737Z,56.95
2022-09-01T17:06:55.859Z,57.08
2022-09-01T17:09:13.191Z,57.19
2022-09-01T17:11:32.663Z,57.04
2022-09-01T17:13:44.238Z,56.24
2022-09-01T17:15:58.215Z,56.41
2022-09-01T17:18:22.423Z,56.02
2022-09-01T17:20:35.684Z,56.07
2022-09-01T17:22:54.333Z,56.24
2022-09-01T17:25:07.933Z,56.43
2022-09-01T17:27:23.257Z,56.07
2022-09-01T17:29:34.538Z,57.54
2022-09-01T17:31:54.400Z,57.68
2022-09-01T17:34:12.045Z,57.52
2022-09-01T17:36:27.396Z,58.31
2022-09-01T17:38:54.267Z,58.00
2022-09-01T17:41:13.669Z,58.33
2022-09-01T17:43:26.455Z,58.74
2022-09-01T17:45:47.863Z,58.99
2022-09-01T17:48:07.636Z,60.38
2022-09-01T17:50:20.639Z,60.08
2022-09-01T17:52:52.555Z,60.74
2022-09-01T17:55:09.069Z,60.98
2022-09-01T17:57:24.605Z,61.84
2022-09-01T17:59:40.497Z,62.23
2022-09-01T18:01:58.652Z,63.08
2022-09-01T18:04:52.154Z,64.61
2022-09-01T18:07:06.958Z,64.47
2022-09-01T18:09:23.087Z,64.83
2022-09-01T18:11:37.948Z,65.43
2022-09-01T18:13:53.737Z,67.91
2022-09-01T18:16:04.963Z,67.70
2022-09-01T18:18:26.777Z,67.69
2022-09-01T18:20:43.882Z,67.54
2022-09-01T18:22:55.892Z,66.86
2022-09-01T18:25:11.462Z,66.68
2022-09-01T18:27:24.652Z,67.70
2022-09-01T18:29:34.780Z,68.68
2022-09-01T18:32:11.594Z,69.40
2022-09-01T18:34:28.296Z,68.35
2022-09-01T18:36:48.075Z,66.75
2022-09-01T18:39:01.040Z,66.94
2022-09-01T18:41:31.370Z,67.26
2022-09-01T18:43:46.888Z,69.13
2022-09-01T18:46:02.858Z,70.17
2022-09-01T18:48:24.861Z,69.57
2022-09-01T18:50:37.553Z,69.86
2022-09-01T18:53:02.678Z,68.84
2022-09-01T18:55:21.527Z,69.14
2022-09-01T18:57:36.735Z,68.14
2022-09-01T19:00:04.884Z,67.61
2022-09-01T19:02:40.428Z,67.95
2022-09-01T19:04:49.084Z,67.13
2022-09-01T19:07:07.325Z,66.52
2022-09-01T19:09:20.434Z,66.63
2022-09-01T19:11:43.322Z,67.18
2022-09-01T19:14:06.615Z,67.57
2022-09-01T19:16:31.942Z,67.25
2022-09-01T19:18:46.374Z,67.28
2022-09-01T19:21:01.278Z,68.04
2022-09-01T19:23:13.798Z,68.20
2022-09-01T19:25:36.150Z,67.85
2022-09-01T19:27:45.904Z,67.89
2022-09-01T19:29:57.812Z,68.23
2022-09-01T19:32:20.132Z,68.16
2022-09-01T19:34:31.667Z,68.04
2022-09-01T19:36:45.673Z,67.25
2022-09-01T19:39:01.380Z,68.04
2022-09-01T19:41:19.252Z,67.55
2022-09-01T19:43:29.837Z,66.90
2022-09-01T19:45:47.411Z,66.62
2022-09-01T19:48:05.746Z,66.98
2022-09-01T19:50:18.517Z,66.50
2022-09-01T19:52:35.420Z,66.81
2022-09-01T19:54:52.779Z,66.48
2022-09-01T19:57:11.580Z,67.22
2022-09-01T19:59:25.291Z,67.19
2022-09-01T20:01:43.459Z,67.72
2022-09-01T20:04:01.109Z,68.39
2022-09-01T20:06:14.275Z,69.39
2022-09-01T20:08:31.394Z,71.38
2022-09-01T20:10:56.551Z,71.89
2022-09-01T20:13:33.504Z,70.44
2022-09-01T20:15:50.447Z,70.48
2022-09-01T20:18:05.759Z,70.89
2022-09-01T20:20:19.383Z,72.41
2022-09-01T20:22:35.909Z,71.33
2022-09-01T20:24:45.718Z,71.01
2022-09-01T20:27:01.860Z,70.46
2022-09-01T20:29:27.414Z,70.87
2022-09-01T20:31:39.422Z,70.87
2022-09-01T20:33:52.269Z,71.21
2022-09-01T20:36:10.166Z,70.09
2022-09-01T20:38:39.503Z,70.03
2022-09-01T20:40:50.654Z,69.42
2022-09-01T20:43:12.636Z,69.48
2022-09-01T20:45:23.237Z,69.66
2022-09-01T20:47:34.660Z,70.09
2022-09-01T20:49:43.741Z,70.41
2022-09-01T20:51:58.693Z,70.50
2022-09-01T20:54:27.292Z,69.75
2022-09-01T20:56:45.653Z,69.70
2022-09-01T20:59:01.340Z,70.40
2022-09-01T21:01:19.545Z,70.23
2022-09-01T21:03:40.044Z,70.44
2022-09-01T21:06:01.653Z,70.94
2022-09-01T21:08:28.492Z,70.53
2022-09-01T21:10:43.913Z,70.51
2022-09-01T21:12:54.833Z,70.33
2022-09-01T21:15:12.466Z,70.46
2022-09-01T21:17:29.519Z,70.25
2022-09-01T21:19:47.841Z,69.91
2022-09-01T21:22:06.987Z,70.56
2022-09-01T21:24:20.728Z,70.67
2022-09-01T21:26:31.298Z,70.64
2022-09-01T21:28:45.103Z,70.26
2022-09-01T21:30:57.763Z,70.27
2022-09-01T21:33:06.662Z,70.16
2022-09-01T21:35:19.060Z,70.43
2022-09-01T21:37:28.385Z,70.07
2022-09-01T21:39:39.560Z,70.40
2022-09-01T21:41:47.519Z,70.86
2022-09-01T21:43:55.462Z,70.95
2022-09-01T21:46:03.765Z,70.16
2022-09-01T21:48:11.930Z,70.65
2022-09-01T21:50:22.456Z,70.58
2022-09-01T21:52:31.083Z,70.50
2022-09-01T21:54:41.713Z,70.53
2022-09-01T21:56:53.502Z,70.64
2022-09-01T21:59:03.444Z,71.13
2022-09-01T22:01:14.275Z,71.22
2022-09-01T22:03:22.697Z,70.99
2022-09-01T22:05:33.497Z,71.13
2022-09-01T22:07:45.569Z,72.42
2022-09-01T22:09:57.792Z,71.61
2022-09-01T22:12:06.307Z,71.38
2022-09-01T22:14:14.495Z,71.78
2022-09-01T22:16:23.648Z,72.00
2022-09-01T22:18:31.825Z,72.42
2022-09-01T22:20:40.369Z,72.28
2022-09-01T22:22:48.852Z,72.09
2022-09-01T22:24:59.436Z,72.75
2022-09-01T22:27:07.650Z,72.86
2022-09-01T22:29:15.924Z,72.85
2022-09-01T22:31:24.606Z,73.41
2022-09-01T22:33:33.668Z,73.00
2022-09-01T22:35:43.991Z,73.08
2022-09-01T22:37:52.537Z,73.08
2022-09-01T22:40:03.108Z,74.12
2022-09-01T22:42:11.041Z,74.00
2022-09-01T22:44:18.904Z,74.01
2022-09-01T22:46:27.112Z,74.29
2022-09-01T22:48:35.389Z,74.71
2022-09-01T22:50:44.395Z,74.44
2022-09-01T22:52:52.225Z,74.61
2022-09-01T22:55:03.337Z,74.76
2022-09-01T22:57:11.959Z,75.15
2022-09-01T22:59:19.807Z,75.46
2022-09-01T23:01:33.095Z,76.05
2022-09-01T23:03:43.653Z,76.57
2022-09-01T23:05:54.650Z,76.86
2022-09-01T23:08:24.635Z,77.19
2022-09-01T23:10:40.532Z,77.25
2022-09-01T23:12:48.842Z,76.73
2022-09-01T23:14:56.644Z,77.20
2022-09-01T23:17:04.474Z,76.91
2022-09-01T23:19:12.255Z,76.58
2022-09-01T23:21:23.204Z,76.64
2022-09-01T23:23:31.456Z,76.76
2022-09-01T23:25:43.945Z,75.99
2022-09-01T23:27:53.717Z,75.68
2022-09-01T23:30:01.826Z,76.59
2022-09-01T23:32:09.810Z,76.51
2022-09-01T23:34:17.671Z,76.07
2022-09-01T23:36:28.995Z,76.33
2022-09-01T23:38:37.263Z,75.75
2022-09-01T23:40:52.025Z,75.29
2022-09-01T23:43:00.036Z,75.92
2022-09-01T23:45:09.299Z,76.15
2022-09-01T23:47:17.330Z,75.32
2022-09-01T23:51:51.041Z,74.90
2022-09-01T23:53:59.497Z,75.44
2022-09-01T23:56:14.320Z,75.32
2022-09-01T23:58:24.212Z,75.76
